Jepson Prairie Reserve, California Weather observations

Data are for 10 minute period ending at time listed.
 Day   Time   Solar   Ave.   Ave.  Ave.  Vector  Max.   Baro.   Total    
  of    of     Rad.   Air    Rel.  Wind   Wind   Wind  Press.  Precip.   
Year   Day            Temp.  Hum.  Speed  Dir.   Gust                    
2017   (PST)  Kw/m2    F      %     mph   deg.    mph    mb.     in.     
-------------------------------------------------------------------------
  87    6:10   0.01   47.1    79    8.1   231    10.6   1020.3    0.00 
  87    6:20   0.03   47.3    78    9.5   234    10.7   1020.0    0.00 
  87    6:30   0.05   48.3    74    8.7   239    10.7   1020.3    0.00 
  87    6:40   0.07   49.8    71    9.0   242    11.0   1020.3    0.00 
  87    6:50   0.10   50.1    74    8.3   234     9.6   1020.3    0.00 
  87    7:00   0.13   51.1    72    8.4   231    10.2   1020.3    0.00 
  87    7:10   0.17   52.4    70    9.0   242    12.1   1020.3    0.00 
  87    7:20   0.20   54.1    64    9.7   275    17.7   1020.0    0.00 
  87    7:30   0.23   57.3    52   12.7   291    19.4   1020.0    0.00 
  87    7:40   0.24   58.1    50   15.2   293    20.6   1020.0    0.00 
  87    7:50   0.27   58.7    48   14.6   296    21.3   1020.0    0.00 
  87    8:00   0.32   59.1    48   14.1   296    20.7   1020.0    0.00 
  87    8:10   0.35   59.6    47   15.6   297    23.9   1019.6    0.00 
  87    8:20   0.38   60.2    46   19.3   309    27.4   1020.0    0.00 
  87    8:30   0.41   60.4    46   19.6   316    24.8   1020.0    0.00 
  87    8:40   0.43   60.8    44   21.3   319    29.3   1020.0    0.00 
  87    8:50   0.46   61.2    43   24.0   318    30.4   1020.0    0.00 
  87    9:00   0.49   61.8    42   24.2   313    34.9   1019.6    0.00 
  87    9:10   0.51   62.4    42   18.6   309    26.4   1020.0    0.00 
  87    9:20   0.54   63.1    42   18.4   311    23.5   1020.0    0.00 
  87    9:30   0.56   63.6    39   23.5   316    30.0   1020.0    0.00 
  87    9:40   0.58   63.9    40   22.8   327    30.3   1020.3    0.00 
  87    9:50   0.61   63.7    40   24.2   327    32.5   1020.3    0.00 
  87   10:00   0.63   63.7    40   26.5   326    36.6   1020.0    0.00 
  87   10:10   0.64   64.0    39   27.0   321    36.8   1020.0    0.00 
  87   10:20   0.66   64.2    39   26.0   322    34.9   1020.0    0.00 
  87   10:30   0.67   64.3    39   23.0   328    31.4   1020.0    0.00 
  87   10:40   0.69   64.6    39   24.1   326    32.3   1020.0    0.00 
  87   10:50   0.70   64.8    38   27.5   325    34.2   1019.6    0.00 
  87   11:00   0.70   65.3    40   25.0   325    33.2   1019.6    0.00 
  87   11:10   0.71   65.7    38   27.4   324    35.4   1019.6    0.00 
  87   11:20   0.72   66.0    38   28.7   323    35.2   1019.6    0.00 
  87   11:30   0.72   66.1    38   27.5   323    33.6   1019.6    0.00 
  87   11:40   0.72   66.3    36   28.0   324    37.3   1019.6    0.00 
  87   11:50   0.72   66.7    37   24.2   323    32.0   1019.6    0.00 
  87   12:00   0.72   67.1    38   24.3   327    33.5   1019.6    0.00 
  87   12:10   0.73   67.1    37   26.1   328    33.8   1019.6    0.00 
  87   12:20   0.72   67.5    38   24.8   328    33.2   1019.6    0.00 
  87   12:30   0.72   67.6    38   25.9   328    32.7   1019.6    0.00 
  87   12:40   0.72   67.8    38   25.5   328    34.8   1019.6    0.00 
  87   12:50   0.72   67.9    38   27.0   336    33.0   1020.0    0.00 
  87   13:00   0.71   68.2    39   21.9   333    27.5   1019.6    0.00 
  87   13:10   0.70   68.3    39   24.1   331    30.8   1019.6    0.00 
  87   13:20   0.70   68.6    39   25.1   327    33.8   1019.6    0.00 
  87   13:30   0.68   68.6    39   25.1   328    30.2   1019.6    0.00 
  87   13:40   0.67   68.8    39   24.2   327    31.4   1019.6    0.00 
  87   13:50   0.66   69.0    40   22.0   330    28.2   1019.3    0.00 
  87   14:00   0.64   69.1    39   25.9   328    36.4   1019.3    0.00 
  87   14:10   0.62   69.3    41   23.1   326    28.9   1019.3    0.00 
  87   14:20   0.61   69.3    40   23.0   325    29.0   1019.0    0.00 
  87   14:30   0.59   69.6    41   23.5   326    30.4   1019.0    0.00 
  87   14:40   0.57   69.5    40   26.4   329    32.5   1019.0    0.00 
  87   14:50   0.55   69.6    40   23.5   322    30.9   1019.0    0.00 
  87   15:00   0.53   69.9    40   23.0   317    29.2   1018.6    0.00 
  87   15:10   0.51   70.1    39   24.4   322    30.1   1019.0    0.00 
  87   15:20   0.48   70.1    40   22.7   327    29.5   1018.6    0.00 
  87   15:30   0.46   70.2    38   24.0   324    29.9   1018.6    0.00 
  87   15:40   0.43   70.2    39   23.5   322    31.0   1018.6    0.00 
  87   15:50   0.41   70.2    41   20.9   324    27.9   1018.6    0.00 
  87   16:00   0.38   70.1    41   20.0   330    25.6   1018.6    0.00 
  87   16:10   0.36   70.1    43   17.9   328    23.2   1018.6    0.00 
  87   16:20   0.33   70.1    41   20.1   328    27.0   1018.6    0.00 
  87   16:30   0.30   70.1    40   20.6   329    25.8   1018.3    0.00 
  87   16:40   0.27   69.8    42   17.2   325    22.5   1018.3    0.00 
  87   16:50   0.24   69.7    42   17.6   327    23.3   1018.3    0.00 
  87   17:00   0.20   69.6    42   16.3   325    21.3   1018.3    0.00 
  87   17:10   0.19   69.3    45   12.6   328    16.7   1018.6    0.00 
  87   17:20   0.16   69.2    45   12.8   331    16.8   1018.6    0.00 
  87   17:30   0.13   68.6    46   13.1   326    17.7   1018.6    0.00 
  87   17:40   0.10   68.3    46   13.1   322    17.7   1018.6    0.00 
  87   17:50   0.07   67.8    47   13.3   325    18.3   1018.6    0.00 
  87   18:00   0.05   66.9    49   12.0   329    16.4   1018.6    0.00 
  87   18:10   0.02   65.7    53    9.2   326    11.5   1018.6    0.00 
  87   18:20   0.01   64.1    56    6.9   306     9.2   1018.6    0.00 
  87   18:30   0.00   63.6    56    7.3   292     9.3   1018.6    0.00 
  87   18:40   0.00   63.5    56    7.4   288     9.6   1018.6    0.00 
  87   18:50   0.00   60.5    61    7.3   278     9.8   1018.6    0.00 
  87   19:00   0.00   62.3    58    8.2   293    10.6   1018.3    0.00 
  87   19:10   0.00   61.7    58    8.8   286    12.6   1018.3    0.00 
  87   19:20   0.00   63.0    53    7.0   283     9.6   1018.3    0.00 
  87   19:30   0.00   59.3    60    7.2   263    10.4   1018.3    0.00 
  87   19:40   0.00   58.4    62    6.8   251     9.4   1018.3    0.00 
  87   19:50   0.00   56.5    66    7.3   239     9.1   1018.3    0.00 
  87   20:00   0.00   55.8    68    8.7   247    12.3   1018.3    0.00 
  87   20:10   0.00   58.9    58    9.7   262    16.1   1018.3    0.00 
  87   20:20   0.00   60.7    54    9.7   268    16.7   1018.3    0.00 
  87   20:30   0.00   63.1    48   10.3   279    13.8   1018.3    0.00 
  87   20:40   0.00   65.0    44   11.6   295    15.1   1018.3    0.00 
  87   20:50   0.00   63.8    48   10.2   270    12.9   1018.6    0.00 
  87   21:00   0.00   57.2    66    6.2   224     9.3   1019.0    0.00 
  87   21:10   0.00   55.3    72    8.7   222    11.5   1018.6    0.00 
  87   21:20   0.00   55.0    74    8.1   218    10.2   1018.6    0.00 
  87   21:30   0.00   55.3    74   10.3   208    15.8   1018.6    0.00 
  87   21:40   0.00   57.8    67   11.4   219    15.3   1018.6    0.00 
  87   21:50   0.00   57.9    66    9.5   234    12.1   1018.6    0.00 
  87   22:00   0.00   55.5    73    8.4   226    10.0   1018.6    0.00 
  87   22:10   0.00   53.4    79    8.3   231     9.3   1018.6    0.00 
  87   22:20   0.00   52.1    82    7.4   216     8.4   1018.6    0.00 
  87   22:30   0.00   50.9    86    6.8   219     7.9   1018.6    0.00 
  87   22:40   0.00   51.9    87    7.2   225     9.1   1018.6    0.00 
  87   22:50   0.00   53.2    85    5.5   234     7.7   1018.6    0.00 
  87   23:00   0.00   53.3    85    5.0   230     7.7   1018.6    0.00 
  87   23:10   0.00   53.0    84    3.7   232     7.3   1018.6    0.00 
  87   23:20   0.00   52.7    84    3.7   214     8.0   1018.6    0.00 
  87   23:30   0.00   53.0    84    9.3   208    11.2   1019.0    0.00 
  87   23:40   0.00   54.3    80    8.7   223    10.7   1019.0    0.00 
  87   23:50   0.00   54.1    78    9.1   222    11.5   1019.0    0.00 
  88    0:00   0.00   53.8    81    8.5   211    10.4   1019.0    0.00 
  88    0:10   0.00   53.3    82    8.1   219    10.4   1019.0    0.00 
  88    0:20   0.00   52.9    83    7.6   217    10.3   1019.0    0.00 
  88    0:30   0.00   52.5    84    8.4   211    11.0   1019.0    0.00 
  88    0:40   0.00   53.1    83    7.6   227    10.6   1019.0    0.00 
  88    0:50   0.00   53.9    78    7.5   233    10.1   1018.6    0.00 
  88    1:00   0.00   53.7    78    8.2   231    10.8   1018.6    0.00 
  88    1:10   0.00   52.9    80    7.4   232     8.9   1018.6    0.00 
  88    1:20   0.00   52.2    83    8.4   225     9.6   1018.6    0.00 
  88    1:30   0.00   51.4    86    5.7   208     8.8   1018.6    0.00 
  88    1:40   0.00   51.8    86    4.4   188     5.6   1018.6    0.00 
  88    1:50   0.00   52.2    85    4.5   208     7.6   1018.6    0.00 
  88    2:00   0.00   52.7    84    1.8   216     5.6   1018.6    0.00 
  88    2:10   0.00   52.4    84    2.1   196     3.3   1018.6    0.00 
  88    2:20   0.00   51.9    85    3.2   185     5.0   1018.6    0.00 
  88    2:30   0.00   51.6    83    6.3   193     8.3   1018.6    0.00 
  88    2:40   0.00   49.5    87    6.1   192     7.2   1018.6    0.00 
  88    2:50   0.00   49.0    89    6.0   194     6.6   1018.6    0.00 
  88    3:00   0.00   48.0    90    6.5   203     8.8   1018.3    0.00 
  88    3:10   0.00   48.2    89    6.3   200     8.0   1018.3    0.00 
  88    3:20   0.00   49.0    89    5.1   196     7.3   1018.6    0.00 
  88    3:30   0.00   49.1    87    3.1   178     4.4   1018.6    0.00 
  88    3:40   0.00   48.9    88    3.1   168     4.7   1018.6    0.00 
  88    3:50   0.00   48.3    88    4.4   166     6.0   1018.6    0.00 
  88    4:00   0.00   47.5    89    4.9   174     7.0   1018.3    0.00 
  88    4:10   0.00   47.2    90    4.2   167     5.9   1018.3    0.00 
  88    4:20   0.00   47.1    90    4.3   172     5.8   1018.3    0.00 
  88    4:30   0.00   47.4    91    3.1   182     4.7   1018.6    0.00 
  88    4:40   0.00   47.6    91    3.3   194     5.1   1018.6    0.00 
  88    4:50   0.00   47.8    90    4.8   202     5.9   1018.6    0.00 
  88    5:00   0.00   48.0    89    5.3   188     8.3   1018.6    0.00 
  88    5:10   0.00   47.8    90    7.2   193     8.6   1018.6    0.00 
  88    5:20   0.00   47.4    91    6.3   198     6.8   1018.6    0.00 
  88    5:30   0.00   47.8    92    6.3   198     7.0   1019.0    0.00 
  88    5:40   0.00   47.8    91    7.5   192     8.4   1018.6    0.00 
  88    5:50   0.00   47.7    90    8.6   186     9.5   1018.6    0.00 
  88    6:00   0.00   47.3    91    8.1   185     8.8   1018.6    0.00 

Return to Jepson Prairie Reserve graphs page.


Western Regional Climate Center,wrcc@dri.edu